Time;durP1;ratioP1;P1;durP2;ratioP2;P2;SDS_P1;SDS_P2;PMS_P1;PMS_P2;Temp;Humidity;BMP_temperature;BMP_pressure;BME280_temperature;BME280_humidity;BME280_pressure;Samples;Min_cycle;Max_cycle;Signal;HPM_P1;HPM_P2
2024/02/26 00:00:39;;;;;;;21.92;18.55;;;3.30;99.90;;;;;;5047437;28;20568;-76
2024/02/26 00:03:05;;;;;;;21.63;18.35;;;3.40;99.90;;;;;;5030006;28;20040;-76
2024/02/26 00:05:31;;;;;;;21.10;18.30;;;3.40;99.90;;;;;;5017233;28;20119;-76
2024/02/26 00:07:57;;;;;;;22.15;18.77;;;3.40;99.90;;;;;;5015687;28;20459;-74
2024/02/26 00:10:24;;;;;;;22.23;19.67;;;3.40;99.90;;;;;;5024830;28;20032;-76
2024/02/26 00:12:49;;;;;;;21.00;18.63;;;3.40;99.90;;;;;;5039338;28;20142;-76
2024/02/26 00:15:15;;;;;;;22.67;20.20;;;3.50;99.90;;;;;;5045000;28;20106;-75
2024/02/26 00:17:41;;;;;;;24.02;20.83;;;3.40;99.90;;;;;;5037072;28;20381;-75
2024/02/26 00:20:10;;;;;;;23.50;20.50;;;3.50;99.90;;;;;;5041201;28;20048;-76
2024/02/26 00:22:36;;;;;;;24.08;21.40;;;3.50;99.90;;;;;;5041996;28;20039;-75
2024/02/26 00:25:02;;;;;;;25.73;20.75;;;3.50;99.90;;;;;;5030811;28;20061;-76
2024/02/26 00:27:28;;;;;;;24.33;21.30;;;3.60;99.90;;;;;;5035597;28;20047;-76
2024/02/26 00:29:54;;;;;;;25.63;21.98;;;3.60;99.90;;;;;;5028122;28;20186;-76
2024/02/26 00:32:19;;;;;;;24.35;21.75;;;3.60;99.90;;;;;;5038498;28;20044;-76
2024/02/26 00:34:45;;;;;;;26.27;22.48;;;3.60;99.90;;;;;;5038087;28;20073;-76
2024/02/26 00:37:11;;;;;;;26.08;22.95;;;3.60;99.90;;;;;;5045719;28;20041;-76
2024/02/26 00:39:37;;;;;;;26.58;22.38;;;3.60;99.90;;;;;;5041574;28;20090;-75
2024/02/26 00:42:03;;;;;;;27.02;22.38;;;3.60;99.90;;;;;;5037115;28;20411;-75
2024/02/26 00:44:29;;;;;;;27.58;23.10;;;3.60;99.90;;;;;;5016987;28;20040;-76
2024/02/26 00:46:54;;;;;;;26.63;22.73;;;3.50;99.90;;;;;;5026803;28;20049;-76
2024/02/26 00:49:20;;;;;;;27.23;22.95;;;3.50;99.90;;;;;;5028215;28;20493;-74
2024/02/26 00:51:46;;;;;;;26.00;22.08;;;3.50;99.90;;;;;;5035595;28;20089;-75
2024/02/26 00:54:12;;;;;;;28.90;23.02;;;3.50;99.90;;;;;;5038117;28;20043;-75
2024/02/26 00:56:40;;;;;;;26.92;23.27;;;3.50;99.90;;;;;;5043604;28;20420;-75
2024/02/26 00:59:06;;;;;;;25.98;22.38;;;3.50;99.90;;;;;;5038196;28;20052;-75
2024/02/26 01:01:32;;;;;;;25.73;22.25;;;3.50;99.90;;;;;;5018125;28;20040;-75
2024/02/26 01:03:58;;;;;;;28.15;22.63;;;3.50;99.90;;;;;;5019751;28;20048;-74
2024/02/26 01:06:23;;;;;;;28.83;22.92;;;3.50;99.90;;;;;;5031846;28;20094;-75
2024/02/26 01:08:50;;;;;;;28.70;23.92;;;3.50;99.90;;;;;;5020400;28;20413;-75
2024/02/26 01:11:16;;;;;;;30.23;24.88;;;3.50;99.90;;;;;;5040082;28;20053;-74
2024/02/26 01:13:41;;;;;;;28.23;23.98;;;3.50;99.90;;;;;;5034779;28;20052;-74
2024/02/26 01:16:07;;;;;;;31.05;23.55;;;3.50;99.90;;;;;;5035404;28;20455;-75
2024/02/26 01:18:33;;;;;;;32.60;25.55;;;3.50;99.90;;;;;;5025282;28;20381;-75
2024/02/26 01:20:59;;;;;;;29.83;23.77;;;3.40;99.90;;;;;;5043283;28;20059;-75
2024/02/26 01:23:25;;;;;;;30.70;23.80;;;3.40;99.90;;;;;;5037020;28;20049;-75
2024/02/26 01:25:51;;;;;;;31.45;24.75;;;3.40;99.90;;;;;;5043576;28;20477;-75
2024/02/26 01:28:17;;;;;;;31.33;24.05;;;3.40;99.90;;;;;;5023101;28;20043;-76
2024/02/26 01:30:43;;;;;;;32.45;25.38;;;3.40;99.90;;;;;;5025816;28;20037;-76
2024/02/26 01:33:08;;;;;;;32.33;25.05;;;3.40;99.90;;;;;;5036792;28;20404;-76
2024/02/26 01:35:34;;;;;;;36.40;26.67;;;3.40;99.90;;;;;;5044923;28;20083;-76
2024/02/26 01:38:00;;;;;;;33.70;25.75;;;3.40;99.90;;;;;;5027870;28;20045;-76
2024/02/26 01:40:29;;;;;;;35.63;26.88;;;3.40;99.90;;;;;;5020113;28;20558;-77
2024/02/26 01:42:59;;;;;;;36.22;27.10;;;3.40;99.90;;;;;;5065270;28;20595;-76
2024/02/26 01:45:24;;;;;;;36.53;26.98;;;3.50;99.90;;;;;;5031239;28;20047;-75
2024/02/26 01:47:51;;;;;;;38.83;27.88;;;3.50;99.90;;;;;;5047604;28;20404;-77
2024/02/26 01:50:18;;;;;;;40.75;28.98;;;3.50;99.90;;;;;;5035846;28;20086;-77
2024/02/26 01:52:46;;;;;;;39.92;28.50;;;3.50;99.90;;;;;;5026047;28;20229;-76
2024/02/26 01:55:14;;;;;;;41.67;28.08;;;3.50;99.90;;;;;;5021257;28;20454;-76
2024/02/26 01:57:41;;;;;;;39.58;28.50;;;3.60;99.90;;;;;;5038458;28;20527;-76
2024/02/26 02:00:07;;;;;;;44.00;31.60;;;3.50;99.90;;;;;;5019396;28;20047;-76
2024/02/26 02:02:34;;;;;;;43.45;31.40;;;3.60;99.90;;;;;;5031587;28;20048;-76
2024/02/26 02:05:01;;;;;;;43.30;29.58;;;3.60;99.90;;;;;;5047976;28;20064;-76
2024/02/26 02:07:28;;;;;;;43.17;30.85;;;3.70;99.90;;;;;;5033104;28;20535;-77
2024/02/26 02:09:54;;;;;;;48.60;33.33;;;3.70;99.90;;;;;;5032071;28;20055;-77
2024/02/26 02:12:21;;;;;;;48.33;33.33;;;3.80;99.90;;;;;;5023588;28;20048;-77
2024/02/26 02:14:47;;;;;;;48.10;33.20;;;3.80;99.90;;;;;;5033999;28;20040;-76
2024/02/26 02:17:13;;;;;;;46.70;32.65;;;3.80;99.90;;;;;;5046544;28;20588;-77
2024/02/26 02:19:39;;;;;;;47.28;33.38;;;3.80;99.90;;;;;;5031696;28;20539;-76
2024/02/26 02:22:04;;;;;;;49.85;35.03;;;3.80;99.90;;;;;;5044680;28;20359;-77
2024/02/26 02:24:30;;;;;;;52.25;36.33;;;3.70;99.90;;;;;;5047148;28;20124;-76
2024/02/26 02:26:56;;;;;;;53.13;37.83;;;3.80;99.90;;;;;;5026463;28;20109;-76
2024/02/26 02:29:22;;;;;;;55.63;39.03;;;3.80;99.90;;;;;;5030311;28;20786;-77
2024/02/26 02:31:51;;;;;;;55.40;39.28;;;3.80;99.90;;;;;;5044310;28;20029;-76
2024/02/26 02:34:18;;;;;;;54.97;40.90;;;3.80;99.90;;;;;;5027876;28;20036;-76
2024/02/26 02:36:54;;;;;;;57.25;41.70;;;3.80;99.90;;;;;;5020377;28;20045;-74
2024/02/26 02:39:20;;;;;;;59.25;42.65;;;3.80;99.90;;;;;;5029674;28;20055;-74
2024/02/26 02:41:46;;;;;;;60.05;43.15;;;3.80;99.90;;;;;;5050221;28;20032;-75
2024/02/26 02:44:12;;;;;;;56.92;43.35;;;3.80;99.90;;;;;;5027574;28;20110;-75
2024/02/26 02:46:39;;;;;;;59.05;42.58;;;3.80;99.90;;;;;;5040619;28;20131;-76
2024/02/26 02:49:09;;;;;;;59.70;42.63;;;3.80;99.90;;;;;;5046282;28;20048;-75
2024/02/26 02:51:35;;;;;;;62.05;44.17;;;3.90;99.90;;;;;;5029934;28;20080;-76
2024/02/26 02:54:01;;;;;;;60.00;44.13;;;3.80;99.90;;;;;;5043994;28;20141;-77
2024/02/26 02:56:26;;;;;;;54.38;40.75;;;3.90;99.90;;;;;;5020830;28;20767;-77
2024/02/26 02:58:52;;;;;;;65.20;44.53;;;3.90;99.90;;;;;;5031483;28;20044;-76
2024/02/26 03:01:18;;;;;;;61.30;42.92;;;3.80;99.90;;;;;;5029589;28;20051;-76
2024/02/26 03:03:44;;;;;;;60.70;42.42;;;3.80;99.90;;;;;;5031455;28;20048;-76
2024/02/26 03:06:10;;;;;;;61.75;43.67;;;3.90;99.90;;;;;;5027791;28;20611;-77
2024/02/26 03:08:39;;;;;;;60.38;44.30;;;3.90;99.90;;;;;;5038724;28;20037;-77
2024/02/26 03:11:05;;;;;;;63.23;45.63;;;3.90;99.90;;;;;;5026818;28;20041;-77
2024/02/26 03:13:34;;;;;;;65.20;45.72;;;4.00;99.90;;;;;;5015286;28;20044;-76
2024/02/26 03:16:05;;;;;;;60.78;45.88;;;4.00;99.90;;;;;;5033765;28;20060;-76
2024/02/26 03:18:34;;;;;;;59.58;44.75;;;3.90;99.90;;;;;;5022089;28;20052;-76
2024/02/26 03:21:00;;;;;;;62.10;43.85;;;4.00;99.90;;;;;;5035446;28;20148;-77
2024/02/26 03:23:25;;;;;;;60.63;43.88;;;3.90;99.90;;;;;;5034348;28;20128;-77
2024/02/26 03:25:52;;;;;;;58.72;43.80;;;4.00;99.90;;;;;;5047382;28;20503;-77
2024/02/26 03:28:18;;;;;;;58.45;42.97;;;3.90;99.90;;;;;;5041241;28;20148;-77
2024/02/26 03:30:43;;;;;;;55.20;40.97;;;4.00;99.90;;;;;;5030038;28;20041;-75
2024/02/26 03:33:09;;;;;;;53.75;42.00;;;4.00;99.90;;;;;;5030575;28;20076;-75
2024/02/26 03:35:35;;;;;;;51.97;40.13;;;4.00;99.90;;;;;;5030989;28;20036;-76
2024/02/26 03:38:02;;;;;;;51.53;39.60;;;4.00;99.90;;;;;;5027304;28;20099;-76
2024/02/26 03:40:28;;;;;;;50.33;38.72;;;4.10;99.90;;;;;;5029308;28;20570;-77
2024/02/26 03:42:54;;;;;;;45.88;37.70;;;4.10;99.90;;;;;;5048042;28;20040;-75
2024/02/26 03:45:19;;;;;;;42.60;35.38;;;4.00;99.90;;;;;;5036493;28;20044;-74
2024/02/26 03:47:45;;;;;;;44.72;35.47;;;4.10;99.90;;;;;;5044042;28;20033;-75
2024/02/26 03:50:11;;;;;;;41.58;33.20;;;4.10;99.90;;;;;;5028864;28;20412;-75
2024/02/26 03:52:37;;;;;;;39.90;33.97;;;4.10;99.90;;;;;;5044067;28;20059;-75
2024/02/26 03:55:03;;;;;;;40.08;32.25;;;4.10;99.90;;;;;;5024280;28;20041;-75
2024/02/26 03:57:29;;;;;;;36.40;31.00;;;4.10;99.90;;;;;;5035472;28;20110;-75
2024/02/26 03:59:55;;;;;;;35.38;29.67;;;4.10;99.90;;;;;;5043663;28;20055;-74
2024/02/26 04:02:20;;;;;;;35.88;29.30;;;4.10;99.90;;;;;;5039276;28;20169;-74
2024/02/26 04:04:47;;;;;;;33.30;28.08;;;4.00;99.90;;;;;;5054419;28;20043;-76
2024/02/26 04:07:13;;;;;;;36.10;29.75;;;4.00;99.90;;;;;;5049987;28;20188;-74
2024/02/26 04:09:39;;;;;;;30.27;26.90;;;4.10;99.90;;;;;;5038626;28;20113;-76
2024/02/26 04:12:05;;;;;;;32.67;26.30;;;4.00;99.90;;;;;;5023606;28;20052;-75
2024/02/26 04:14:31;;;;;;;31.10;26.98;;;4.00;99.90;;;;;;5044949;28;20156;-76
2024/02/26 04:16:57;;;;;;;26.90;23.98;;;4.00;99.90;;;;;;5043375;28;20138;-76
2024/02/26 04:19:23;;;;;;;27.98;24.95;;;4.00;99.90;;;;;;5032884;28;20099;-76
2024/02/26 04:21:49;;;;;;;28.45;24.98;;;4.00;99.90;;;;;;5032603;28;21632;-76
2024/02/26 04:24:14;;;;;;;28.27;25.23;;;4.00;99.90;;;;;;5035784;28;20045;-75
2024/02/26 04:26:40;;;;;;;26.13;23.33;;;4.00;99.90;;;;;;5045753;28;20052;-76
2024/02/26 04:29:06;;;;;;;26.88;23.98;;;4.00;99.90;;;;;;5047611;28;20053;-77
2024/02/26 04:31:34;;;;;;;25.83;23.02;;;4.00;99.90;;;;;;5034662;28;20079;-77
2024/02/26 04:34:00;;;;;;;25.40;22.48;;;4.00;99.90;;;;;;5042514;28;20102;-77
2024/02/26 04:36:26;;;;;;;24.15;21.65;;;3.90;99.90;;;;;;5045714;28;20052;-77
2024/02/26 04:38:54;;;;;;;23.70;21.25;;;4.00;99.90;;;;;;5034174;28;20060;-77
2024/02/26 04:41:20;;;;;;;23.30;20.90;;;4.00;99.90;;;;;;5029477;28;20068;-75
2024/02/26 04:43:46;;;;;;;24.50;21.88;;;4.00;99.90;;;;;;5020480;28;20044;-76
2024/02/26 04:46:11;;;;;;;21.67;19.08;;;3.90;99.90;;;;;;5037628;28;20056;-75
2024/02/26 04:48:38;;;;;;;22.08;19.40;;;4.00;99.90;;;;;;5027214;28;20551;-76
2024/02/26 04:51:04;;;;;;;22.52;20.23;;;4.00;99.90;;;;;;5043853;28;20178;-76
2024/02/26 04:53:31;;;;;;;22.25;19.77;;;4.00;99.90;;;;;;5018907;28;20408;-76
2024/02/26 04:55:59;;;;;;;21.35;19.05;;;4.00;99.90;;;;;;5038504;28;20575;-76
2024/02/26 04:58:25;;;;;;;19.17;17.27;;;4.00;99.90;;;;;;5046742;28;20048;-76
2024/02/26 05:00:51;;;;;;;19.92;17.70;;;4.00;99.90;;;;;;5037810;28;20053;-76
2024/02/26 05:03:16;;;;;;;19.10;16.67;;;4.00;99.90;;;;;;5018766;28;20051;-77
2024/02/26 05:05:43;;;;;;;19.83;17.80;;;4.00;99.90;;;;;;5048391;28;20036;-77
2024/02/26 05:08:09;;;;;;;20.27;17.98;;;4.00;99.90;;;;;;5032616;28;20107;-77
2024/02/26 05:10:39;;;;;;;20.13;17.50;;;4.00;99.90;;;;;;5019250;28;20056;-77
2024/02/26 05:13:08;;;;;;;19.58;17.08;;;4.00;99.90;;;;;;5020303;28;20059;-75
2024/02/26 05:15:34;;;;;;;20.27;17.10;;;4.00;99.90;;;;;;5033313;28;20036;-75
2024/02/26 05:17:59;;;;;;;19.17;17.17;;;4.00;99.90;;;;;;5040323;28;20322;-75
2024/02/26 05:20:25;;;;;;;18.90;16.30;;;4.00;99.90;;;;;;5041002;28;20374;-75
2024/02/26 05:22:51;;;;;;;19.00;15.60;;;4.00;99.90;;;;;;5015491;28;20045;-75
2024/02/26 05:25:17;;;;;;;17.30;15.60;;;4.00;99.90;;;;;;5027609;28;20513;-73
2024/02/26 05:27:44;;;;;;;17.55;15.75;;;4.00;99.90;;;;;;5041653;28;20032;-73
2024/02/26 05:30:10;;;;;;;16.65;14.85;;;4.00;99.90;;;;;;5031069;28;20419;-74
2024/02/26 05:32:36;;;;;;;17.17;14.65;;;4.00;99.90;;;;;;5036478;28;20045;-74
2024/02/26 05:35:05;;;;;;;16.05;14.32;;;4.00;99.90;;;;;;5030059;28;20047;-75
2024/02/26 05:37:31;;;;;;;15.30;13.65;;;4.00;99.90;;;;;;5030926;28;20049;-75
2024/02/26 05:39:59;;;;;;;15.65;13.95;;;4.00;99.90;;;;;;5019928;28;20056;-75
2024/02/26 05:42:25;;;;;;;16.15;13.52;;;4.00;99.90;;;;;;5036401;28;20052;-75
2024/02/26 05:44:51;;;;;;;14.30;12.57;;;4.00;99.90;;;;;;5055444;28;20045;-74
2024/02/26 05:47:17;;;;;;;13.90;12.18;;;4.00;99.90;;;;;;5023237;28;20412;-74
2024/02/26 05:49:43;;;;;;;13.27;11.88;;;4.00;99.90;;;;;;5020620;28;20064;-74
2024/02/26 05:52:12;;;;;;;13.02;10.52;;;4.00;99.90;;;;;;5030174;28;20135;-75
2024/02/26 05:54:37;;;;;;;12.85;10.75;;;4.10;99.90;;;;;;5033977;28;20049;-75
2024/02/26 05:57:04;;;;;;;11.13;9.93;;;4.00;99.90;;;;;;5023616;28;20060;-74
2024/02/26 05:59:30;;;;;;;11.50;10.30;;;4.00;99.90;;;;;;5041346;28;20045;-75
2024/02/26 06:01:55;;;;;;;12.18;9.77;;;4.00;99.90;;;;;;5040454;28;20059;-75
2024/02/26 06:04:21;;;;;;;13.18;9.93;;;4.00;99.90;;;;;;5048742;28;20341;-75
2024/02/26 06:06:47;;;;;;;11.63;9.40;;;4.00;99.90;;;;;;5029043;28;20044;-75
2024/02/26 06:09:13;;;;;;;11.13;9.93;;;4.00;99.90;;;;;;5032938;28;20092;-73
2024/02/26 06:11:39;;;;;;;10.70;9.60;;;3.90;99.90;;;;;;5033028;28;20120;-75
2024/02/26 06:14:04;;;;;;;11.07;9.73;;;3.90;99.90;;;;;;5046768;28;20040;-74
2024/02/26 06:16:31;;;;;;;11.70;9.10;;;3.90;99.90;;;;;;5023327;28;20047;-74
2024/02/26 06:18:57;;;;;;;10.60;9.50;;;3.90;99.90;;;;;;5045607;28;20095;-74
2024/02/26 06:21:23;;;;;;;10.70;9.27;;;3.90;99.90;;;;;;5047040;28;20072;-74
2024/02/26 06:23:50;;;;;;;11.25;9.48;;;3.90;99.90;;;;;;5034208;28;20079;-75
2024/02/26 06:26:19;;;;;;;11.63;9.40;;;3.90;99.90;;;;;;5033095;28;20045;-75
2024/02/26 06:28:45;;;;;;;11.75;9.32;;;3.80;99.90;;;;;;5048052;28;20033;-74
2024/02/26 06:31:10;;;;;;;10.65;8.95;;;3.80;99.90;;;;;;5047125;28;20043;-74
2024/02/26 06:33:36;;;;;;;9.70;8.27;;;3.80;99.90;;;;;;5045284;28;20591;-73
2024/02/26 06:36:02;;;;;;;10.70;8.77;;;3.80;99.90;;;;;;5031949;28;20044;-74
2024/02/26 06:38:28;;;;;;;9.55;8.43;;;3.90;99.90;;;;;;5045349;28;20037;-74
2024/02/26 06:40:57;;;;;;;9.38;7.90;;;3.90;99.90;;;;;;5026196;28;20510;-73
2024/02/26 06:43:23;;;;;;;9.02;8.13;;;3.90;99.90;;;;;;5031779;28;20048;-74
2024/02/26 06:45:49;;;;;;;9.73;8.55;;;3.90;99.90;;;;;;5035890;28;20572;-74
2024/02/26 06:48:14;;;;;;;9.25;8.25;;;3.90;99.90;;;;;;5026655;28;20048;-75
2024/02/26 06:50:41;;;;;;;10.57;8.52;;;3.90;99.90;;;;;;5040275;28;20055;-75
2024/02/26 06:53:07;;;;;;;10.48;8.52;;;3.90;99.90;;;;;;5029367;28;20148;-75
2024/02/26 06:55:33;;;;;;;9.88;8.85;;;3.90;99.90;;;;;;5054047;28;20161;-75
2024/02/26 06:57:58;;;;;;;10.55;8.50;;;3.90;99.90;;;;;;5032774;28;20054;-76
2024/02/26 07:00:24;;;;;;;10.98;9.50;;;4.00;99.90;;;;;;5027646;28;20068;-76
2024/02/26 07:02:53;;;;;;;9.35;8.30;;;4.00;99.90;;;;;;5026408;28;20480;-75
2024/02/26 07:05:19;;;;;;;10.15;8.43;;;4.00;99.90;;;;;;5054402;28;20045;-75
2024/02/26 07:07:44;;;;;;;9.48;8.48;;;4.00;99.90;;;;;;5023108;28;20051;-76
2024/02/26 07:10:12;;;;;;;9.85;8.13;;;4.00;99.90;;;;;;5029742;28;20029;-76
2024/02/26 07:12:38;;;;;;;9.50;8.07;;;4.00;99.90;;;;;;5027472;28;20102;-77
2024/02/26 07:15:06;;;;;;;8.93;7.85;;;4.00;99.90;;;;;;5042169;28;20606;-76
2024/02/26 07:17:33;;;;;;;8.48;7.57;;;4.00;99.90;;;;;;5041816;28;20044;-75
2024/02/26 07:19:59;;;;;;;9.05;7.70;;;4.00;99.90;;;;;;5045572;28;20244;-74
2024/02/26 07:22:25;;;;;;;9.30;8.10;;;4.00;99.90;;;;;;5043674;28;20506;-74
2024/02/26 07:24:51;;;;;;;10.43;8.38;;;4.10;99.90;;;;;;5025350;28;20040;-74
2024/02/26 07:27:18;;;;;;;8.65;7.75;;;4.10;99.90;;;;;;5027491;28;20052;-74
2024/02/26 07:29:44;;;;;;;9.15;8.25;;;4.10;99.90;;;;;;5027066;28;20061;-74
2024/02/26 07:32:10;;;;;;;8.82;7.90;;;4.10;99.90;;;;;;5027262;28;20036;-75
2024/02/26 07:34:39;;;;;;;10.52;7.90;;;4.20;99.90;;;;;;5041377;28;20625;-74
2024/02/26 07:37:06;;;;;;;11.52;8.55;;;4.20;99.90;;;;;;5029391;28;20059;-74
2024/02/26 07:39:32;;;;;;;8.60;7.70;;;4.20;99.90;;;;;;5044813;28;20505;-74
2024/02/26 07:41:58;;;;;;;9.50;8.10;;;4.30;99.90;;;;;;5040826;28;20080;-75
2024/02/26 07:44:23;;;;;;;9.13;8.02;;;4.20;99.90;;;;;;5024892;28;20040;-75
2024/02/26 07:46:50;;;;;;;10.32;8.68;;;4.30;99.90;;;;;;5041025;28;20041;-74
2024/02/26 07:49:15;;;;;;;9.85;8.73;;;4.30;99.90;;;;;;5040000;28;20397;-76
2024/02/26 07:51:41;;;;;;;10.05;8.50;;;4.30;99.90;;;;;;5029973;28;20037;-75
2024/02/26 07:54:07;;;;;;;9.57;7.97;;;4.30;99.90;;;;;;5030163;28;20444;-75
2024/02/26 07:56:33;;;;;;;9.02;8.13;;;4.30;99.90;;;;;;5045080;28;20110;-75
2024/02/26 07:58:59;;;;;;;8.48;7.68;;;4.30;99.90;;;;;;5044819;28;20140;-75
2024/02/26 08:01:26;;;;;;;10.02;7.82;;;4.30;99.90;;;;;;5037822;28;20421;-77
2024/02/26 08:03:53;;;;;;;9.57;8.63;;;4.30;99.90;;;;;;5043130;28;20062;-74
2024/02/26 08:06:23;;;;;;;9.82;8.82;;;4.30;99.90;;;;;;5030731;28;20048;-75
2024/02/26 08:08:48;;;;;;;9.57;8.57;;;4.30;99.90;;;;;;5032924;28;20028;-75
2024/02/26 08:11:15;;;;;;;9.70;8.10;;;4.30;99.90;;;;;;5030331;28;20382;-74
2024/02/26 08:13:41;;;;;;;9.48;7.90;;;4.30;99.90;;;;;;5052253;28;20079;-75
2024/02/26 08:16:07;;;;;;;9.70;8.70;;;4.40;99.90;;;;;;5049781;28;20049;-74
2024/02/26 08:18:36;;;;;;;8.90;8.00;;;4.40;99.90;;;;;;5047655;28;20055;-75
2024/02/26 08:21:04;;;;;;;9.00;8.10;;;4.30;99.90;;;;;;5047554;28;20509;-76
2024/02/26 08:23:31;;;;;;;8.52;7.63;;;4.40;99.90;;;;;;5033760;28;20409;-76
2024/02/26 08:25:57;;;;;;;8.45;7.65;;;4.40;99.90;;;;;;5032059;28;20033;-75
2024/02/26 08:28:25;;;;;;;8.93;8.02;;;4.40;99.90;;;;;;5051714;28;20492;-75
2024/02/26 08:30:51;;;;;;;8.73;7.88;;;4.40;99.90;;;;;;5032923;28;20307;-75
2024/02/26 08:33:17;;;;;;;8.77;7.40;;;4.40;99.90;;;;;;5043158;28;20036;-75
2024/02/26 08:35:43;;;;;;;10.38;8.52;;;4.50;99.90;;;;;;5045472;28;20324;-75
2024/02/26 08:38:09;;;;;;;8.73;7.93;;;4.40;99.90;;;;;;5031798;28;20654;-76
2024/02/26 08:40:34;;;;;;;9.80;8.90;;;4.40;99.90;;;;;;5052337;28;20040;-76
2024/02/26 08:43:00;;;;;;;9.68;8.77;;;4.50;99.90;;;;;;5049190;28;20033;-75
2024/02/26 08:45:27;;;;;;;10.10;9.07;;;4.50;99.90;;;;;;5043548;28;20128;-76
2024/02/26 08:47:52;;;;;;;9.07;8.15;;;4.50;99.90;;;;;;5028876;28;20501;-75
2024/02/26 08:50:18;;;;;;;12.80;8.88;;;4.40;99.90;;;;;;5037900;28;20052;-76
2024/02/26 08:52:48;;;;;;;10.05;9.15;;;4.50;99.90;;;;;;5046114;28;20045;-75
2024/02/26 08:55:14;;;;;;;10.02;9.07;;;4.50;99.90;;;;;;5031197;28;20488;-75
2024/02/26 08:57:40;;;;;;;10.60;9.52;;;4.50;99.90;;;;;;5029847;28;20097;-76
2024/02/26 09:00:06;;;;;;;10.90;9.90;;;4.50;99.90;;;;;;5045403;28;20402;-76
2024/02/26 09:02:32;;;;;;;10.38;9.32;;;4.50;99.90;;;;;;5041171;28;20041;-75
2024/02/26 09:04:58;;;;;;;9.90;8.98;;;4.60;99.90;;;;;;5045683;28;20055;-74
2024/02/26 09:07:24;;;;;;;9.77;8.85;;;4.60;99.90;;;;;;5042239;28;20473;-74
2024/02/26 09:09:50;;;;;;;11.25;10.15;;;4.70;99.90;;;;;;5025997;28;20547;-76
2024/02/26 09:12:16;;;;;;;10.50;9.52;;;4.70;99.90;;;;;;5042939;28;20044;-75
2024/02/26 09:14:42;;;;;;;9.82;8.93;;;4.80;99.90;;;;;;5025143;28;20040;-75
2024/02/26 09:17:08;;;;;;;10.57;9.55;;;4.70;99.90;;;;;;5042996;28;20059;-75
2024/02/26 09:19:33;;;;;;;10.98;9.88;;;4.70;99.90;;;;;;5042951;28;20135;-76
2024/02/26 09:21:59;;;;;;;9.75;8.85;;;4.70;99.90;;;;;;5032853;28;20040;-75
2024/02/26 09:24:26;;;;;;;9.88;8.98;;;4.80;99.90;;;;;;5043719;28;20051;-74
2024/02/26 09:26:52;;;;;;;10.23;8.65;;;4.80;99.90;;;;;;5027960;28;20044;-76
2024/02/26 09:29:18;;;;;;;10.82;9.73;;;4.80;99.90;;;;;;5048847;28;20044;-75
2024/02/26 09:31:47;;;;;;;10.30;9.30;;;4.80;99.90;;;;;;5044014;28;20059;-76
2024/02/26 09:34:13;;;;;;;9.95;8.90;;;4.90;99.90;;;;;;5050433;28;20398;-75
2024/02/26 09:36:39;;;;;;;10.35;9.35;;;4.90;99.90;;;;;;5050247;28;20119;-75
2024/02/26 09:39:07;;;;;;;9.65;8.65;;;4.90;99.90;;;;;;5023993;28;20256;-75
2024/02/26 09:41:33;;;;;;;9.27;8.35;;;4.90;99.90;;;;;;5030088;28;20382;-74
2024/02/26 09:43:59;;;;;;;9.82;8.80;;;4.90;99.90;;;;;;5053459;28;20059;-75
2024/02/26 09:46:25;;;;;;;9.75;8.55;;;5.00;99.90;;;;;;5032739;28;20048;-75
2024/02/26 09:48:52;;;;;;;9.68;8.73;;;5.00;99.90;;;;;;5047465;28;20041;-74
2024/02/26 09:51:19;;;;;;;9.25;8.27;;;5.00;99.90;;;;;;5035539;28;20507;-75
2024/02/26 09:53:49;;;;;;;8.95;8.05;;;4.90;99.90;;;;;;5043564;28;20182;-76
2024/02/26 09:56:15;;;;;;;9.55;8.55;;;5.00;99.90;;;;;;5047343;28;20044;-75
2024/02/26 09:58:42;;;;;;;9.73;8.70;;;5.00;99.90;;;;;;5043982;28;20047;-74
2024/02/26 10:01:13;;;;;;;9.65;8.65;;;5.00;99.90;;;;;;5031203;28;20040;-74
2024/02/26 10:03:41;;;;;;;9.25;8.35;;;5.00;99.90;;;;;;5048019;28;20055;-77
2024/02/26 10:06:11;;;;;;;9.13;8.23;;;5.10;99.90;;;;;;5047639;28;20055;-75
2024/02/26 10:08:38;;;;;;;9.25;8.32;;;5.10;99.90;;;;;;5050567;28;20967;-75
2024/02/26 10:11:06;;;;;;;9.40;8.40;;;5.10;99.90;;;;;;5042377;28;20409;-74
2024/02/26 10:13:32;;;;;;;9.27;8.38;;;5.10;99.90;;;;;;5046913;28;20105;-74
2024/02/26 10:15:58;;;;;;;9.35;8.32;;;5.20;99.90;;;;;;5033914;28;22042;-75
2024/02/26 10:18:24;;;;;;;9.25;8.30;;;5.10;99.90;;;;;;5032551;28;20190;-75
2024/02/26 10:21:02;;;;;;;10.10;8.10;;;5.20;99.90;;;;;;5032533;28;20135;-75
2024/02/26 10:23:28;;;;;;;8.48;7.40;;;5.20;99.90;;;;;;5042555;28;20396;-76
2024/02/26 10:25:57;;;;;;;8.95;8.02;;;5.20;99.90;;;;;;5033750;28;20055;-75
2024/02/26 10:28:23;;;;;;;8.43;7.53;;;5.20;99.90;;;;;;5041903;28;20139;-75
2024/02/26 10:30:50;;;;;;;8.55;7.65;;;5.20;99.90;;;;;;5031026;28;20133;-75
2024/02/26 10:33:16;;;;;;;8.88;7.97;;;5.20;99.90;;;;;;5042553;28;20508;-76
2024/02/26 10:35:46;;;;;;;8.30;7.50;;;5.30;99.90;;;;;;5029845;28;20083;-75
2024/02/26 10:38:12;;;;;;;;;;;5.30;99.90;;;;;;5027035;28;20049;-74
2024/02/26 10:40:38;;;;;;;7.93;6.97;;;5.30;99.90;;;;;;5034042;28;19927;-75
2024/02/26 10:43:04;;;;;;;8.02;7.22;;;5.30;99.90;;;;;;5034777;28;20461;-76
2024/02/26 10:45:29;;;;;;;8.80;7.60;;;5.30;99.90;;;;;;5051272;28;20044;-75
2024/02/26 10:47:55;;;;;;;7.10;6.38;;;5.30;99.90;;;;;;5047994;28;20201;-75
2024/02/26 10:50:21;;;;;;;9.05;7.75;;;5.30;99.90;;;;;;5029904;28;20251;-74
2024/02/26 10:52:47;;;;;;;8.30;7.30;;;5.30;99.90;;;;;;5038014;28;20454;-75
2024/02/26 10:55:20;;;;;;;7.95;6.95;;;5.40;99.90;;;;;;5031570;28;20526;-78
2024/02/26 10:57:47;;;;;;;6.95;6.25;;;5.40;99.90;;;;;;5042420;28;20129;-74
2024/02/26 11:00:16;;;;;;;7.57;6.47;;;5.50;99.90;;;;;;5043731;28;20052;-75
2024/02/26 11:02:45;;;;;;;7.72;6.50;;;5.50;99.90;;;;;;5047189;28;20457;-74
2024/02/26 11:05:12;;;;;;;7.57;6.40;;;5.50;99.90;;;;;;5032859;28;20044;-74
2024/02/26 11:07:38;;;;;;;8.05;7.15;;;5.60;99.90;;;;;;5044191;28;20064;-75
2024/02/26 11:10:05;;;;;;;7.10;6.40;;;5.60;99.90;;;;;;5040923;28;20080;-75
2024/02/26 11:12:36;;;;;;;8.05;6.75;;;5.60;99.90;;;;;;5030231;28;20412;-75
2024/02/26 11:15:03;;;;;;;6.93;6.22;;;5.60;99.90;;;;;;5047163;28;20064;-74
2024/02/26 11:17:31;;;;;;;6.80;5.90;;;5.70;99.90;;;;;;5048439;28;20056;-74
2024/02/26 11:20:05;;;;;;;6.40;5.68;;;5.70;99.90;;;;;;5033020;28;20074;-75
2024/02/26 11:22:34;;;;;;;8.40;5.70;;;5.80;99.90;;;;;;5031613;28;20396;-75
2024/02/26 11:25:00;;;;;;;6.03;5.43;;;5.80;99.90;;;;;;5022005;28;20040;-74
2024/02/26 11:27:56;;;;;;;6.25;5.65;;;5.80;99.90;;;;;;5036798;28;20512;-75
2024/02/26 11:30:25;;;;;;;6.22;5.63;;;5.80;99.90;;;;;;5036088;28;20055;-74
2024/02/26 11:32:52;;;;;;;5.70;5.10;;;5.80;99.90;;;;;;5033591;28;20183;-75
2024/02/26 11:35:18;;;;;;;6.43;5.72;;;5.80;99.90;;;;;;5031425;28;20037;-75
2024/02/26 11:37:53;;;;;;;6.53;5.32;;;5.80;99.90;;;;;;5041968;28;20501;-75
2024/02/26 11:40:19;;;;;;;6.40;5.55;;;5.80;99.90;;;;;;5051351;28;20037;-76
2024/02/26 11:42:45;;;;;;;6.05;5.45;;;5.90;99.90;;;;;;5041540;28;20060;-74
2024/02/26 11:45:39;;;;;;;7.80;5.57;;;5.90;99.90;;;;;;5028790;28;20064;-77
2024/02/26 11:48:12;;;;;;;5.82;4.55;;;5.80;99.90;;;;;;5043184;28;20505;-76
2024/02/26 11:50:52;;;;;;;5.40;4.75;;;5.80;99.90;;;;;;5023454;28;20045;-76
2024/02/26 11:53:31;;;;;;;5.25;4.75;;;5.90;99.90;;;;;;5031611;28;20107;-76
2024/02/26 11:56:29;;;;;;;5.93;4.97;;;6.00;99.90;;;;;;5030957;28;20052;-75
2024/02/26 11:59:00;;;;;;;5.90;5.07;;;5.90;99.90;;;;;;5044011;28;20061;-74
2024/02/26 12:01:49;;;;;;;5.45;4.38;;;5.90;99.90;;;;;;5030721;28;20049;-74
2024/02/26 12:04:21;;;;;;;6.25;4.63;;;5.90;99.90;;;;;;5053874;28;20090;-74
2024/02/26 12:06:51;;;;;;;6.25;5.07;;;5.90;99.90;;;;;;5031104;28;20037;-74
2024/02/26 12:09:37;;;;;;;5.13;4.53;;;5.90;99.90;;;;;;5028866;28;20576;-74
2024/02/26 12:12:08;;;;;;;6.55;4.80;;;5.90;99.90;;;;;;5027239;28;20071;-74
2024/02/26 12:14:40;;;;;;;6.03;4.78;;;5.90;99.90;;;;;;5042846;28;20048;-75
2024/02/26 12:17:18;;;;;;;6.63;5.05;;;5.90;99.90;;;;;;5023794;28;20049;-75
2024/02/26 12:19:45;;;;;;;5.20;4.55;;;6.10;99.90;;;;;;5025034;28;20083;-74
2024/02/26 12:22:13;;;;;;;6.13;4.72;;;5.90;99.90;;;;;;5024284;28;20040;-74
2024/02/26 12:24:39;;;;;;;6.75;5.10;;;6.00;99.90;;;;;;5049156;28;20510;-75
2024/02/26 12:27:04;;;;;;;5.95;5.00;;;5.90;99.90;;;;;;5046159;28;20045;-75
2024/02/26 12:29:30;;;;;;;5.70;4.80;;;6.00;99.90;;;;;;5033592;28;20117;-74
2024/02/26 12:31:56;;;;;;;7.35;5.22;;;6.00;99.90;;;;;;5027017;28;20075;-75
2024/02/26 12:34:22;;;;;;;6.45;5.13;;;6.00;99.90;;;;;;5033471;28;20036;-75
2024/02/26 12:36:48;;;;;;;6.05;4.93;;;6.00;99.90;;;;;;5043216;28;20063;-74
2024/02/26 12:39:13;;;;;;;5.68;5.03;;;6.00;99.90;;;;;;5040784;28;20036;-75
2024/02/26 12:41:40;;;;;;;5.78;4.93;;;6.00;99.90;;;;;;5044082;28;20106;-75
2024/02/26 12:44:07;;;;;;;7.07;5.70;;;6.00;99.90;;;;;;5032058;28;20064;-75